sensor_id;sensor_type;location;lat;lon;timestamp;pressure;altitude;pressure_sealevel;temperature;humidity
71504;BME280;59323;50.874;7.028;2024-03-22T00:01:45;101839.91;;;9.50;100.00
71504;BME280;59323;50.874;7.028;2024-03-22T00:04:11;101825.09;;;9.47;100.00
71504;BME280;59323;50.874;7.028;2024-03-22T00:06:37;101818.53;;;9.48;100.00
71504;BME280;59323;50.874;7.028;2024-03-22T00:09:03;101827.59;;;9.52;100.00
71504;BME280;59323;50.874;7.028;2024-03-22T00:11:28;101815.81;;;9.48;100.00
71504;BME280;59323;50.874;7.028;2024-03-22T00:13:53;101822.03;;;9.49;100.00
71504;BME280;59323;50.874;7.028;2024-03-22T00:16:19;101820.44;;;9.48;100.00
71504;BME280;59323;50.874;7.028;2024-03-22T00:18:44;101810.25;;;9.45;100.00
71504;BME280;59323;50.874;7.028;2024-03-22T00:21:09;101822.03;;;9.49;100.00
71504;BME280;59323;50.874;7.028;2024-03-22T00:23:35;101822.22;;;9.44;100.00
71504;BME280;59323;50.874;7.028;2024-03-22T00:26:00;101817.47;;;9.41;100.00
71504;BME280;59323;50.874;7.028;2024-03-22T00:28:28;101817.47;;;9.41;100.00
71504;BME280;59323;50.874;7.028;2024-03-22T00:30:53;101813.97;;;9.40;100.00
71504;BME280;59323;50.874;7.028;2024-03-22T00:33:21;101813.81;;;9.37;100.00
71504;BME280;59323;50.874;7.028;2024-03-22T00:35:47;101810.00;;;9.38;100.00
71504;BME280;59323;50.874;7.028;2024-03-22T00:38:13;101809.53;;;9.36;100.00
71504;BME280;59323;50.874;7.028;2024-03-22T00:40:38;101803.97;;;9.32;100.00
71504;BME280;59323;50.874;7.028;2024-03-22T00:43:03;101808.72;;;9.35;100.00
71504;BME280;59323;50.874;7.028;2024-03-22T00:45:29;101809.06;;;9.34;100.00
71504;BME280;59323;50.874;7.028;2024-03-22T00:47:54;101806.69;;;9.32;100.00
71504;BME280;59323;50.874;7.028;2024-03-22T00:50:19;101793.44;;;9.31;100.00
71504;BME280;59323;50.874;7.028;2024-03-22T00:52:45;101795.69;;;9.29;100.00
71504;BME280;59323;50.874;7.028;2024-03-22T00:55:10;101790.25;;;9.29;100.00
71504;BME280;59323;50.874;7.028;2024-03-22T00:57:35;101782.94;;;9.29;100.00
71504;BME280;59323;50.874;7.028;2024-03-22T01:00:03;101787.09;;;9.27;100.00
71504;BME280;59323;50.874;7.028;2024-03-22T01:02:29;101782.78;;;9.26;100.00
71504;BME280;59323;50.874;7.028;2024-03-22T01:04:55;101776.91;;;9.24;100.00
71504;BME280;59323;50.874;7.028;2024-03-22T01:07:20;101772.59;;;9.23;100.00
71504;BME280;59323;50.874;7.028;2024-03-22T01:09:45;101768.31;;;9.21;100.00
71504;BME280;59323;50.874;7.028;2024-03-22T01:12:10;101765.91;;;9.20;100.00
71504;BME280;59323;50.874;7.028;2024-03-22T01:14:36;101760.50;;;9.20;100.00
71504;BME280;59323;50.874;7.028;2024-03-22T01:17:01;101749.50;;;9.16;100.00
71504;BME280;59323;50.874;7.028;2024-03-22T01:19:27;101753.81;;;9.17;100.00
71504;BME280;59323;50.874;7.028;2024-03-22T01:21:55;101749.66;;;9.20;100.00
71504;BME280;59323;50.874;7.028;2024-03-22T01:24:20;101744.88;;;9.17;100.00
71504;BME280;59323;50.874;7.028;2024-03-22T01:26:45;101730.84;;;9.15;100.00
71504;BME280;59323;50.874;7.028;2024-03-22T01:29:11;101741.38;;;9.16;100.00
71504;BME280;59323;50.874;7.028;2024-03-22T01:31:36;101741.38;;;9.16;100.00
71504;BME280;59323;50.874;7.028;2024-03-22T01:34:01;101744.88;;;9.17;100.00
71504;BME280;59323;50.874;7.028;2024-03-22T01:36:27;101727.34;;;9.14;100.00
71504;BME280;59323;50.874;7.028;2024-03-22T01:38:52;101728.63;;;9.17;100.00
71504;BME280;59323;50.874;7.028;2024-03-22T01:41:19;101729.06;;;9.19;100.00
71504;BME280;59323;50.874;7.028;2024-03-22T01:43:45;101717.91;;;9.20;100.00
71504;BME280;59323;50.874;7.028;2024-03-22T01:46:10;101724.91;;;9.21;100.00
71504;BME280;59323;50.874;7.028;2024-03-22T01:48:36;101721.41;;;9.21;100.00
71504;BME280;59323;50.874;7.028;2024-03-22T01:51:02;101720.28;;;9.22;100.00
71504;BME280;59323;50.874;7.028;2024-03-22T01:53:28;101721.88;;;9.23;100.00
71504;BME280;59323;50.874;7.028;2024-03-22T01:55:54;101719.47;;;9.21;100.00
71504;BME280;59323;50.874;7.028;2024-03-22T01:58:19;101718.22;;;9.19;100.00
71504;BME280;59323;50.874;7.028;2024-03-22T02:00:50;101710.56;;;9.21;100.00
71504;BME280;59323;50.874;7.028;2024-03-22T02:03:15;101707.50;;;9.23;100.00
71504;BME280;59323;50.874;7.028;2024-03-22T02:05:41;101707.66;;;9.26;100.00
71504;BME280;59323;50.874;7.028;2024-03-22T02:08:06;101691.38;;;9.26;100.00
71504;BME280;59323;50.874;7.028;2024-03-22T02:10:36;101696.00;;;9.26;100.00
71504;BME280;59323;50.874;7.028;2024-03-22T02:13:02;101682.44;;;9.26;100.00
71504;BME280;59323;50.874;7.028;2024-03-22T02:15:29;101685.63;;;9.28;100.00
71504;BME280;59323;50.874;7.028;2024-03-22T02:17:55;101680.19;;;9.28;100.00
71504;BME280;59323;50.874;7.028;2024-03-22T02:20:20;101677.81;;;9.26;100.00
71504;BME280;59323;50.874;7.028;2024-03-22T02:22:46;101675.09;;;9.26;100.00
71504;BME280;59323;50.874;7.028;2024-03-22T02:25:11;101675.56;;;9.28;100.00
71504;BME280;59323;50.874;7.028;2024-03-22T02:27:38;101673.50;;;9.25;100.00
71504;BME280;59323;50.874;7.028;2024-03-22T02:30:04;101670.81;;;9.25;100.00
71504;BME280;59323;50.874;7.028;2024-03-22T02:32:30;101670.00;;;9.25;100.00
71504;BME280;59323;50.874;7.028;2024-03-22T02:34:55;101668.56;;;9.27;100.00
71504;BME280;59323;50.874;7.028;2024-03-22T02:37:23;101666.16;;;9.26;100.00
71504;BME280;59323;50.874;7.028;2024-03-22T02:39:48;101666.16;;;9.26;100.00
71504;BME280;59323;50.874;7.028;2024-03-22T02:42:14;101660.75;;;9.26;100.00
71504;BME280;59323;50.874;7.028;2024-03-22T02:44:41;101654.19;;;9.27;100.00
71504;BME280;59323;50.874;7.028;2024-03-22T02:47:10;101656.91;;;9.27;100.00
71504;BME280;59323;50.874;7.028;2024-03-22T02:49:35;101653.88;;;9.28;100.00
71504;BME280;59323;50.874;7.028;2024-03-22T02:52:01;101641.44;;;9.27;100.00
71504;BME280;59323;50.874;7.028;2024-03-22T02:54:26;101643.34;;;9.27;100.00
71504;BME280;59323;50.874;7.028;2024-03-22T02:56:51;101630.56;;;9.27;100.00
71504;BME280;59323;50.874;7.028;2024-03-22T02:59:19;101632.97;;;9.29;100.00
71504;BME280;59323;50.874;7.028;2024-03-22T03:01:44;101634.88;;;9.28;100.00
71504;BME280;59323;50.874;7.028;2024-03-22T03:04:10;101630.25;;;9.29;100.00
71504;BME280;59323;50.874;7.028;2024-03-22T03:06:35;101624.50;;;9.30;100.00
71504;BME280;59323;50.874;7.028;2024-03-22T03:09:00;101624.03;;;9.28;100.00
71504;BME280;59323;50.874;7.028;2024-03-22T03:11:28;101617.81;;;9.28;100.00
71504;BME280;59323;50.874;7.028;2024-03-22T03:13:53;101614.44;;;9.31;100.00
71504;BME280;59323;50.874;7.028;2024-03-22T03:16:19;101612.19;;;9.33;100.00
71504;BME280;59323;50.874;7.028;2024-03-22T03:18:44;101620.31;;;9.33;100.00
71504;BME280;59323;50.874;7.028;2024-03-22T03:21:09;101618.41;;;9.33;100.00
71504;BME280;59323;50.874;7.028;2024-03-22T03:23:35;101623.03;;;9.33;100.00
71504;BME280;59323;50.874;7.028;2024-03-22T03:26:00;101618.41;;;9.33;100.00
71504;BME280;59323;50.874;7.028;2024-03-22T03:28:25;101627.00;;;9.35;100.00
71504;BME280;59323;50.874;7.028;2024-03-22T03:30:52;101620.44;;;9.36;100.00
71504;BME280;59323;50.874;7.028;2024-03-22T03:33:17;101622.69;;;9.34;100.00
71504;BME280;59323;50.874;7.028;2024-03-22T03:35:46;101618.84;;;9.35;100.00
71504;BME280;59323;50.874;7.028;2024-03-22T03:38:12;101616.13;;;9.35;100.00
71504;BME280;59323;50.874;7.028;2024-03-22T03:40:37;101611.50;;;9.36;100.00
71504;BME280;59323;50.874;7.028;2024-03-22T03:43:05;101609.13;;;9.34;100.00
71504;BME280;59323;50.874;7.028;2024-03-22T03:45:30;101599.06;;;9.35;100.00
71504;BME280;59323;50.874;7.028;2024-03-22T03:47:55;101605.28;;;9.35;100.00
71504;BME280;59323;50.874;7.028;2024-03-22T03:50:21;101593.97;;;9.33;100.00
71504;BME280;59323;50.874;7.028;2024-03-22T03:52:49;101598.63;;;9.33;100.00
71504;BME280;59323;50.874;7.028;2024-03-22T03:55:15;101590.81;;;9.31;100.00
71504;BME280;59323;50.874;7.028;2024-03-22T03:57:40;101583.25;;;9.37;100.00
71504;BME280;59323;50.874;7.028;2024-03-22T04:00:06;101582.81;;;9.35;100.00
71504;BME280;59323;50.874;7.028;2024-03-22T04:02:34;101587.88;;;9.36;100.00
71504;BME280;59323;50.874;7.028;2024-03-22T04:04:59;101573.06;;;9.34;100.00
71504;BME280;59323;50.874;7.028;2024-03-22T04:07:25;101573.06;;;9.34;100.00
71504;BME280;59323;50.874;7.028;2024-03-22T04:09:50;101568.91;;;9.36;100.00
71504;BME280;59323;50.874;7.028;2024-03-22T04:12:16;101580.53;;;9.37;100.00
71504;BME280;59323;50.874;7.028;2024-03-22T04:14:43;101577.03;;;9.36;100.00
71504;BME280;59323;50.874;7.028;2024-03-22T04:17:09;101571.63;;;9.36;100.00
71504;BME280;59323;50.874;7.028;2024-03-22T04:19:34;101570.59;;;9.41;100.00
71504;BME280;59323;50.874;7.028;2024-03-22T04:21:59;101569.16;;;9.43;100.00
71504;BME280;59323;50.874;7.028;2024-03-22T04:24:25;101569.47;;;9.42;100.00
71504;BME280;59323;50.874;7.028;2024-03-22T04:26:52;101565.19;;;9.41;100.00
71504;BME280;59323;50.874;7.028;2024-03-22T04:29:19;101562.47;;;9.41;100.00
71504;BME280;59323;50.874;7.028;2024-03-22T04:31:45;101556.72;;;9.42;100.00
71504;BME280;59323;50.874;7.028;2024-03-22T04:34:10;101558.28;;;9.43;100.00
71504;BME280;59323;50.874;7.028;2024-03-22T04:36:36;101554.44;;;9.44;100.00
71504;BME280;59323;50.874;7.028;2024-03-22T04:39:03;101544.41;;;9.45;100.00
71504;BME280;59323;50.874;7.028;2024-03-22T04:41:29;101546.31;;;9.44;100.00
71504;BME280;59323;50.874;7.028;2024-03-22T04:43:54;101542.34;;;9.42;100.00
71504;BME280;59323;50.874;7.028;2024-03-22T04:46:24;101544.28;;;9.41;100.00
71504;BME280;59323;50.874;7.028;2024-03-22T04:48:49;101541.44;;;9.38;100.00
71504;BME280;59323;50.874;7.028;2024-03-22T04:51:15;101535.56;;;9.36;100.00
71504;BME280;59323;50.874;7.028;2024-03-22T04:53:40;101530.94;;;9.36;100.00
71504;BME280;59323;50.874;7.028;2024-03-22T04:56:06;101527.44;;;9.36;100.00
71504;BME280;59323;50.874;7.028;2024-03-22T04:58:36;101524.38;;;9.37;100.00
71504;BME280;59323;50.874;7.028;2024-03-22T05:01:02;101517.69;;;9.35;100.00
71504;BME280;59323;50.874;7.028;2024-03-22T05:03:27;101513.41;;;9.34;100.00
71504;BME280;59323;50.874;7.028;2024-03-22T05:05:55;101509.13;;;9.33;100.00
71504;BME280;59323;50.874;7.028;2024-03-22T05:08:24;101507.88;;;9.30;100.00
71504;BME280;59323;50.874;7.028;2024-03-22T05:10:49;101509.78;;;9.30;100.00
71504;BME280;59323;50.874;7.028;2024-03-22T05:13:14;101504.69;;;9.28;100.00
71504;BME280;59323;50.874;7.028;2024-03-22T05:15:42;101507.41;;;9.28;100.00
71504;BME280;59323;50.874;7.028;2024-03-22T05:18:07;101505.03;;;9.27;100.00
71504;BME280;59323;50.874;7.028;2024-03-22T05:20:32;101506.94;;;9.26;100.00
71504;BME280;59323;50.874;7.028;2024-03-22T05:22:58;101511.59;;;9.26;100.00
71504;BME280;59323;50.874;7.028;2024-03-22T05:25:24;101502.19;;;9.23;100.00
71504;BME280;59323;50.874;7.028;2024-03-22T05:27:54;101507.97;;;9.21;100.00
71504;BME280;59323;50.874;7.028;2024-03-22T05:30:21;101505.25;;;9.21;100.00
71504;BME280;59323;50.874;7.028;2024-03-22T05:32:49;101509.88;;;9.21;100.00
71504;BME280;59323;50.874;7.028;2024-03-22T05:35:17;101496.31;;;9.21;100.00
71504;BME280;59323;50.874;7.028;2024-03-22T05:37:47;101501.88;;;9.25;100.00
71504;BME280;59323;50.874;7.028;2024-03-22T05:40:15;101496.44;;;9.25;100.00
71504;BME280;59323;50.874;7.028;2024-03-22T05:42:41;101476.66;;;9.24;100.00
71504;BME280;59323;50.874;7.028;2024-03-22T05:45:06;101487.97;;;9.26;100.00
71504;BME280;59323;50.874;7.028;2024-03-22T05:47:32;101487.28;;;9.29;100.00
71504;BME280;59323;50.874;7.028;2024-03-22T05:49:58;101493.19;;;9.31;100.00
71504;BME280;59323;50.874;7.028;2024-03-22T05:52:24;101481.53;;;9.31;100.00
71504;BME280;59323;50.874;7.028;2024-03-22T05:54:51;101487.88;;;9.35;100.00
71504;BME280;59323;50.874;7.028;2024-03-22T05:57:17;101490.25;;;9.36;100.00
71504;BME280;59323;50.874;7.028;2024-03-22T05:59:45;101484.13;;;9.39;100.00
71504;BME280;59323;50.874;7.028;2024-03-22T06:02:10;101481.53;;;9.43;100.00
71504;BME280;59323;50.874;7.028;2024-03-22T06:04:39;101489.34;;;9.44;100.00
71504;BME280;59323;50.874;7.028;2024-03-22T06:07:06;101488.34;;;9.49;100.00
71504;BME280;59323;50.874;7.028;2024-03-22T06:09:39;101486.53;;;9.53;100.00
71504;BME280;59323;50.874;7.028;2024-03-22T06:12:17;101474.31;;;9.59;100.00
71504;BME280;59323;50.874;7.028;2024-03-22T06:15:00;101479.41;;;9.61;100.00
71504;BME280;59323;50.874;7.028;2024-03-22T06:17:28;101476.34;;;9.62;100.00
71504;BME280;59323;50.874;7.028;2024-03-22T06:19:53;101474.88;;;9.65;100.00
71504;BME280;59323;50.874;7.028;2024-03-22T06:22:21;101463.00;;;9.69;100.00
71504;BME280;59323;50.874;7.028;2024-03-22T06:24:46;101466.97;;;9.72;100.00
71504;BME280;59323;50.874;7.028;2024-03-22T06:27:12;101470.91;;;9.74;100.00
71504;BME280;59323;50.874;7.028;2024-03-22T06:29:40;101467.56;;;9.77;100.00
71504;BME280;59323;50.874;7.028;2024-03-22T06:32:05;101466.44;;;9.78;100.00
71504;BME280;59323;50.874;7.028;2024-03-22T06:34:35;101462.22;;;9.81;100.00
71504;BME280;59323;50.874;7.028;2024-03-22T06:37:03;101464.25;;;9.84;100.00
71504;BME280;59323;50.874;7.028;2024-03-22T06:39:29;101466.63;;;9.85;100.00
71504;BME280;59323;50.874;7.028;2024-03-22T06:41:58;101463.25;;;9.89;100.00
71504;BME280;59323;50.874;7.028;2024-03-22T06:44:23;101450.47;;;9.89;100.00
71504;BME280;59323;50.874;7.028;2024-03-22T06:46:50;101455.22;;;9.92;100.00
71504;BME280;59323;50.874;7.028;2024-03-22T06:49:16;101447.84;;;9.93;100.00
71504;BME280;59323;50.874;7.028;2024-03-22T06:51:45;101461.53;;;9.96;100.00
71504;BME280;59323;50.874;7.028;2024-03-22T06:54:10;101459.59;;;9.97;100.00
71504;BME280;59323;50.874;7.028;2024-03-22T06:56:41;101454.63;;;9.99;100.00
71504;BME280;59323;50.874;7.028;2024-03-22T06:59:09;101452.03;;;10.02;100.00
71504;BME280;59323;50.874;7.028;2024-03-22T07:01:37;101447.94;;;10.08;100.00
71504;BME280;59323;50.874;7.028;2024-03-22T07:04:02;101452.34;;;10.13;100.00
71504;BME280;59323;50.874;7.028;2024-03-22T07:06:50;101447.69;;;10.13;100.00
71504;BME280;59323;50.874;7.028;2024-03-22T07:09:16;101447.94;;;10.21;100.00
71504;BME280;59323;50.874;7.028;2024-03-22T07:11:54;101446.75;;;10.34;100.00
71504;BME280;59323;50.874;7.028;2024-03-22T07:14:48;101443.69;;;10.47;100.00
71504;BME280;59323;50.874;7.028;2024-03-22T07:17:14;101435.22;;;10.65;100.00
71504;BME280;59323;50.874;7.028;2024-03-22T07:19:42;101437.78;;;10.89;100.00
71504;BME280;59323;50.874;7.028;2024-03-22T07:22:08;101442.13;;;11.06;100.00
71504;BME280;59323;50.874;7.028;2024-03-22T07:24:33;101440.22;;;11.22;100.00
71504;BME280;59323;50.874;7.028;2024-03-22T07:26:59;101443.00;;;11.41;100.00
71504;BME280;59323;50.874;7.028;2024-03-22T07:29:24;101445.44;;;11.62;100.00
71504;BME280;59323;50.874;7.028;2024-03-22T07:32:08;101452.75;;;11.74;100.00
71504;BME280;59323;50.874;7.028;2024-03-22T07:34:33;101442.47;;;11.83;100.00
71504;BME280;59323;50.874;7.028;2024-03-22T07:36:59;101442.63;;;11.90;100.00
71504;BME280;59323;50.874;7.028;2024-03-22T07:39:24;101441.22;;;11.96;100.00
71504;BME280;59323;50.874;7.028;2024-03-22T07:41:50;101430.03;;;12.01;100.00
71504;BME280;59323;50.874;7.028;2024-03-22T07:44:24;101438.28;;;12.05;100.00
71504;BME280;59323;50.874;7.028;2024-03-22T07:46:51;101434.56;;;12.13;100.00
71504;BME280;59323;50.874;7.028;2024-03-22T07:49:20;101422.59;;;12.18;100.00
71504;BME280;59323;50.874;7.028;2024-03-22T07:51:45;101427.03;;;12.26;100.00
71504;BME280;59323;50.874;7.028;2024-03-22T07:54:11;101420.25;;;12.35;100.00
71504;BME280;59323;50.874;7.028;2024-03-22T07:56:36;101423.03;;;12.39;100.00
71504;BME280;59323;50.874;7.028;2024-03-22T07:59:02;101419.72;;;12.49;100.00
71504;BME280;59323;50.874;7.028;2024-03-22T08:01:27;101423.75;;;12.55;100.00
71504;BME280;59323;50.874;7.028;2024-03-22T08:03:55;101427.38;;;12.63;100.00
71504;BME280;59323;50.874;7.028;2024-03-22T08:06:20;101420.91;;;12.71;100.00
71504;BME280;59323;50.874;7.028;2024-03-22T08:08:45;101418.03;;;12.83;100.00
71504;BME280;59323;50.874;7.028;2024-03-22T08:11:13;101412.75;;;12.94;100.00
71504;BME280;59323;50.874;7.028;2024-03-22T08:13:43;101410.16;;;13.01;100.00
71504;BME280;59323;50.874;7.028;2024-03-22T08:16:09;101413.44;;;13.10;100.00
71504;BME280;59323;50.874;7.028;2024-03-22T08:18:34;101407.34;;;13.17;100.00
71504;BME280;59323;50.874;7.028;2024-03-22T08:20:59;101416.78;;;13.23;100.00
71504;BME280;59323;50.874;7.028;2024-03-22T08:58:04;101396.97;;;14.76;100.00
71504;BME280;59323;50.874;7.028;2024-03-22T09:01:01;101394.19;;;14.72;100.00
71504;BME280;59323;50.874;7.028;2024-03-22T09:03:40;101379.25;;;14.63;100.00
71504;BME280;59323;50.874;7.028;2024-03-22T09:06:30;101391.41;;;14.65;100.00
71504;BME280;59323;50.874;7.028;2024-03-22T09:37:43;101369.56;;;15.16;99.90
71504;BME280;59323;50.874;7.028;2024-03-22T09:40:12;101358.66;;;15.20;99.95
71504;BME280;59323;50.874;7.028;2024-03-22T09:43:12;101354.38;;;15.26;98.88
71504;BME280;59323;50.874;7.028;2024-03-22T09:45:49;101349.38;;;15.35;98.41
71504;BME280;59323;50.874;7.028;2024-03-22T09:48:19;101358.84;;;15.48;97.51
71504;BME280;59323;50.874;7.028;2024-03-22T09:50:51;101345.97;;;15.56;97.10
71504;BME280;59323;50.874;7.028;2024-03-22T09:53:21;101353.50;;;15.66;96.74
71504;BME280;59323;50.874;7.028;2024-03-22T09:55:48;101347.28;;;15.76;95.66
71504;BME280;59323;50.874;7.028;2024-03-22T09:58:14;101349.69;;;15.85;95.22
71504;BME280;59323;50.874;7.028;2024-03-22T10:00:46;101346.16;;;15.81;94.52
71504;BME280;59323;50.874;7.028;2024-03-22T10:03:12;101348.13;;;15.88;94.78
71504;BME280;59323;50.874;7.028;2024-03-22T10:05:39;101341.50;;;15.96;91.58
71504;BME280;59323;50.874;7.028;2024-03-22T10:08:05;101339.56;;;16.03;92.49
71504;BME280;59323;50.874;7.028;2024-03-22T10:10:36;101342.34;;;16.14;93.58
71504;BME280;59323;50.874;7.028;2024-03-22T10:16:54;101321.59;;;16.24;88.44
71504;BME280;59323;50.874;7.028;2024-03-22T10:19:34;101329.88;;;16.34;90.29
71504;BME280;59323;50.874;7.028;2024-03-22T10:22:25;101329.50;;;16.36;89.02
71504;BME280;59323;50.874;7.028;2024-03-22T10:24:51;101326.75;;;16.39;88.54
71504;BME280;59323;50.874;7.028;2024-03-22T10:27:45;101319.31;;;16.36;86.43
71504;BME280;59323;50.874;7.028;2024-03-22T10:30:36;101333.81;;;16.40;86.64
71504;BME280;59323;50.874;7.028;2024-03-22T10:33:29;101319.28;;;16.29;87.37
71504;BME280;59323;50.874;7.028;2024-03-22T10:36:14;101320.06;;;16.26;87.18
71504;BME280;59323;50.874;7.028;2024-03-22T10:39:00;101317.69;;;16.25;86.37
71504;BME280;59323;50.874;7.028;2024-03-22T10:42:04;101316.13;;;16.20;87.91
71504;BME280;59323;50.874;7.028;2024-03-22T10:44:32;101308.66;;;16.17;88.90
71504;BME280;59323;50.874;7.028;2024-03-22T10:47:12;101302.78;;;16.18;89.03
71504;BME280;59323;50.874;7.028;2024-03-22T10:50:12;101299.28;;;16.25;85.88
71504;BME280;59323;50.874;7.028;2024-03-22T11:10:14;101277.38;;;16.46;73.16
71504;BME280;59323;50.874;7.028;2024-03-22T11:12:45;101268.75;;;16.44;73.10
71504;BME280;59323;50.874;7.028;2024-03-22T11:15:17;101274.66;;;16.50;74.04
71504;BME280;59323;50.874;7.028;2024-03-22T11:18:27;101267.59;;;16.49;71.56
71504;BME280;59323;50.874;7.028;2024-03-22T11:20:56;101272.69;;;16.51;70.89
71504;BME280;59323;50.874;7.028;2024-03-22T11:23:21;101255.84;;;16.52;70.26
71504;BME280;59323;50.874;7.028;2024-03-22T11:25:47;101254.25;;;16.55;70.25
71504;BME280;59323;50.874;7.028;2024-03-22T11:28:36;101249.56;;;16.52;70.71
71504;BME280;59323;50.874;7.028;2024-03-22T11:31:31;101238.97;;;16.50;69.53
71504;BME280;59323;50.874;7.028;2024-03-22T11:34:05;101236.63;;;16.52;71.09
71504;BME280;59323;50.874;7.028;2024-03-22T11:36:35;101238.97;;;16.57;71.20
71504;BME280;59323;50.874;7.028;2024-03-22T11:39:03;101244.47;;;16.71;70.98
71504;BME280;59323;50.874;7.028;2024-03-22T11:41:30;101243.31;;;16.76;70.69
71504;BME280;59323;50.874;7.028;2024-03-22T11:43:56;101242.88;;;16.88;67.97
71504;BME280;59323;50.874;7.028;2024-03-22T11:46:31;101237.81;;;16.94;68.11
71504;BME280;59323;50.874;7.028;2024-03-22T11:48:59;101228.41;;;16.95;70.09
71504;BME280;59323;50.874;7.028;2024-03-22T11:51:25;101219.38;;;16.94;69.35
71504;BME280;59323;50.874;7.028;2024-03-22T11:53:54;101219.78;;;16.93;68.63
71504;BME280;59323;50.874;7.028;2024-03-22T11:56:55;101228.38;;;17.02;66.86
71504;BME280;59323;50.874;7.028;2024-03-22T11:59:58;101229.19;;;16.95;68.43
71504;BME280;59323;50.874;7.028;2024-03-22T12:02:24;101216.63;;;16.84;68.51
71504;BME280;59323;50.874;7.028;2024-03-22T12:04:49;101218.97;;;16.78;68.63
71504;BME280;59323;50.874;7.028;2024-03-22T12:07:24;101211.94;;;16.70;68.09
71504;BME280;59323;50.874;7.028;2024-03-22T12:13:48;101197.41;;;16.62;68.78
71504;BME280;59323;50.874;7.028;2024-03-22T12:16:15;101203.31;;;16.61;67.80
71504;BME280;59323;50.874;7.028;2024-03-22T12:19:19;101205.66;;;16.59;69.32
71504;BME280;59323;50.874;7.028;2024-03-22T12:26:03;101190.00;;;16.48;69.03
71504;BME280;59323;50.874;7.028;2024-03-22T12:32:10;101171.19;;;16.36;71.03
71504;BME280;59323;50.874;7.028;2024-03-22T12:38:03;101168.84;;;16.28;68.80
71504;BME280;59323;50.874;7.028;2024-03-22T12:41:03;101172.72;;;16.23;68.50
71504;BME280;59323;50.874;7.028;2024-03-22T12:43:59;101180.56;;;16.25;69.00
71504;BME280;59323;50.874;7.028;2024-03-22T12:49:26;101162.16;;;16.04;69.97
71504;BME280;59323;50.874;7.028;2024-03-22T12:52:12;101154.72;;;15.97;70.10
71504;BME280;59323;50.874;7.028;2024-03-22T12:55:39;101151.19;;;15.93;68.89
71504;BME280;59323;50.874;7.028;2024-03-22T12:58:59;101152.34;;;15.96;69.50
71504;BME280;59323;50.874;7.028;2024-03-22T13:08:21;101126.13;;;15.77;70.25
71504;BME280;59323;50.874;7.028;2024-03-22T13:11:09;101139.03;;;15.83;70.90
71504;BME280;59323;50.874;7.028;2024-03-22T13:20:47;101103.81;;;16.03;68.62
71504;BME280;59323;50.874;7.028;2024-03-22T13:23:28;101095.56;;;16.17;68.06
71504;BME280;59323;50.874;7.028;2024-03-22T13:25:55;101094.78;;;16.31;67.78
71504;BME280;59323;50.874;7.028;2024-03-22T13:28:51;101099.47;;;16.48;64.80
71504;BME280;59323;50.874;7.028;2024-03-22T13:31:53;101093.97;;;16.48;65.40
71504;BME280;59323;50.874;7.028;2024-03-22T13:34:18;101095.91;;;16.52;65.32
71504;BME280;59323;50.874;7.028;2024-03-22T13:36:43;101084.94;;;16.55;63.20
71504;BME280;59323;50.874;7.028;2024-03-22T13:42:26;101083.78;;;16.49;65.68
71504;BME280;59323;50.874;7.028;2024-03-22T13:47:27;101054.00;;;16.44;63.31
71504;BME280;59323;50.874;7.028;2024-03-22T13:50:18;101068.09;;;16.49;62.48
71504;BME280;59323;50.874;7.028;2024-03-22T13:52:44;101048.53;;;16.44;65.09
71504;BME280;59323;50.874;7.028;2024-03-22T13:55:22;101048.50;;;16.47;65.15
71504;BME280;59323;50.874;7.028;2024-03-22T13:57:54;101051.22;;;16.55;63.79
71504;BME280;59323;50.874;7.028;2024-03-22T14:00:44;101050.84;;;16.56;64.00
71504;BME280;59323;50.874;7.028;2024-03-22T14:04:34;101051.22;;;16.55;65.92
71504;BME280;59323;50.874;7.028;2024-03-22T14:11:16;101029.66;;;16.57;65.22
71504;BME280;59323;50.874;7.028;2024-03-22T14:17:27;101020.28;;;16.47;61.13
71504;BME280;59323;50.874;7.028;2024-03-22T14:23:01;101001.09;;;16.43;59.64
71504;BME280;59323;50.874;7.028;2024-03-22T14:25:31;101008.16;;;16.41;60.29
71504;BME280;59323;50.874;7.028;2024-03-22T14:27:59;100998.38;;;16.36;59.47
71504;BME280;59323;50.874;7.028;2024-03-22T14:30:24;101005.81;;;16.39;61.06
71504;BME280;59323;50.874;7.028;2024-03-22T14:32:50;101001.13;;;16.40;59.25
71504;BME280;59323;50.874;7.028;2024-03-22T14:35:18;101001.91;;;16.37;60.39
71504;BME280;59323;50.874;7.028;2024-03-22T14:37:44;101007.38;;;16.40;59.65
71504;BME280;59323;50.874;7.028;2024-03-22T14:40:10;100998.38;;;16.40;60.57
71504;BME280;59323;50.874;7.028;2024-03-22T14:42:38;101000.72;;;16.41;60.05
71504;BME280;59323;50.874;7.028;2024-03-22T14:45:11;100996.78;;;16.46;60.14
71504;BME280;59323;50.874;7.028;2024-03-22T14:51:32;100987.75;;;16.53;61.15
71504;BME280;59323;50.874;7.028;2024-03-22T14:57:50;100975.94;;;16.59;60.62
71504;BME280;59323;50.874;7.028;2024-03-22T15:04:19;100959.16;;;16.46;61.84
71504;BME280;59323;50.874;7.028;2024-03-22T15:17:51;100948.66;;;16.31;62.80
71504;BME280;59323;50.874;7.028;2024-03-22T15:20:48;100946.72;;;16.28;63.66
71504;BME280;59323;50.874;7.028;2024-03-22T15:23:26;100939.66;;;16.16;65.34
71504;BME280;59323;50.874;7.028;2024-03-22T15:26:24;100933.81;;;16.10;64.16
71504;BME280;59323;50.874;7.028;2024-03-22T15:32:58;100933.44;;;16.05;66.36
71504;BME280;59323;50.874;7.028;2024-03-22T15:39:08;100924.84;;;15.96;67.03
71504;BME280;59323;50.874;7.028;2024-03-22T15:41:35;100924.84;;;15.96;68.99
71504;BME280;59323;50.874;7.028;2024-03-22T15:44:01;100917.41;;;16.00;69.19
71504;BME280;59323;50.874;7.028;2024-03-22T15:53:50;100903.41;;;15.62;74.77
71504;BME280;59323;50.874;7.028;2024-03-22T15:56:34;100904.56;;;15.58;75.84